Time;durP1;ratioP1;P1;durP2;ratioP2;P2;SDS_P1;SDS_P2;PMS_P1;PMS_P2;Temp;Humidity;BMP_temperature;BMP_pressure;BME280_temperature;BME280_humidity;BME280_pressure;Samples;Min_cycle;Max_cycle;Signal;HPM_P1;HPM_P2
2023/01/30 00:00:26;;;;;;;22.83;18.70;;;;;;;5.02;71.81;99969.22;5072717;28;20024;-80
2023/01/30 00:02:51;;;;;;;25.70;20.17;;;;;;;4.61;71.99;99894.28;5074724;28;20025;-80
2023/01/30 00:05:17;;;;;;;24.67;19.00;;;;;;;4.47;71.67;99875.38;5075829;28;20095;-80
2023/01/30 00:07:42;;;;;;;22.17;17.70;;;;;;;4.43;72.20;99868.72;5075967;28;20016;-80
2023/01/30 00:10:08;;;;;;;26.63;19.53;;;;;;;4.60;71.56;99931.84;5076529;28;20036;-80
2023/01/30 00:12:34;;;;;;;23.57;19.17;;;;;;;4.74;71.71;99916.63;5076856;28;20162;-80
2023/01/30 00:14:59;;;;;;;26.57;20.70;;;;;;;4.50;71.41;99863.81;5077091;28;20066;-79
2023/01/30 00:17:24;;;;;;;31.17;21.83;;;;;;;3.99;71.72;99806.34;5076774;28;20479;-80
2023/01/30 00:19:50;;;;;;;26.83;19.13;;;;;;;4.52;71.79;99874.16;5076609;28;20048;-79
2023/01/30 00:22:15;;;;;;;30.73;22.73;;;;;;;5.05;71.48;99963.72;5077947;28;20497;-79
2023/01/30 00:24:40;;;;;;;29.93;20.90;;;;;;;5.04;71.59;99968.13;5078371;28;20027;-80
2023/01/30 00:27:06;;;;;;;28.07;21.40;;;;;;;4.80;71.79;99920.50;5073866;28;20039;-80
2023/01/30 00:29:31;;;;;;;31.13;23.20;;;;;;;4.60;71.73;99893.47;5073610;28;20024;-80
2023/01/30 00:31:57;;;;;;;30.60;22.83;;;;;;;4.73;72.12;99922.00;5072933;28;20485;-80
2023/01/30 00:34:22;;;;;;;32.00;23.30;;;;;;;4.47;71.98;99866.69;5073976;28;20021;-80
2023/01/30 00:36:47;;;;;;;30.93;24.70;;;;;;;4.52;72.04;99882.00;5074333;28;20460;-80
2023/01/30 00:39:13;;;;;;;33.47;24.53;;;;;;;4.78;71.84;99919.81;5074443;28;20024;-80
2023/01/30 00:47:07;;;;;;;33.57;24.63;;;;;;;4.50;71.97;99874.28;5073786;28;20024;-80
2023/01/30 00:49:34;;;;;;;32.73;24.63;;;;;;;4.94;71.92;99948.94;5072617;28;20477;-80
2023/01/30 00:52:00;;;;;;;32.20;24.57;;;;;;;4.95;72.19;99953.22;5073184;28;20095;-80
2023/01/30 00:54:25;;;;;;;34.73;26.07;;;;;;;4.35;72.00;99842.41;5071751;28;20052;-80
2023/01/30 00:56:51;;;;;;;35.87;26.87;;;;;;;4.25;71.57;99838.91;5071044;28;20016;-80
2023/01/30 00:59:16;;;;;;;34.07;24.93;;;;;;;4.96;72.38;99951.41;5072207;28;20043;-80
2023/01/30 01:01:41;;;;;;;32.33;25.67;;;;;;;4.64;71.78;99873.94;5073380;28;20042;-80
2023/01/30 01:04:09;;;;;;;31.20;23.77;;;;;;;4.82;71.85;99892.44;5072776;28;20032;-80
2023/01/30 01:06:37;;;;;;;29.37;22.53;;;;;;;5.02;71.59;99916.88;5074041;28;20021;-80
2023/01/30 01:09:03;;;;;;;29.17;21.80;;;;;;;5.02;71.70;99924.72;5073976;28;20055;-80
2023/01/30 01:11:29;;;;;;;28.00;21.47;;;;;;;4.56;71.55;99845.00;5072719;28;20029;-80
2023/01/30 01:13:56;;;;;;;28.40;22.07;;;;;;;4.73;71.29;99880.16;5074304;28;20027;-80
2023/01/30 01:16:23;;;;;;;26.43;20.83;;;;;;;4.94;71.35;99911.47;5072289;28;20025;-80
2023/01/30 01:18:49;;;;;;;25.33;18.97;;;;;;;5.00;71.47;99926.63;5073673;28;20558;-80
2023/01/30 01:21:15;;;;;;;23.93;18.47;;;;;;;4.71;71.27;99892.53;5073406;28;20075;-80
2023/01/30 01:23:40;;;;;;;22.50;17.20;;;;;;;4.51;71.25;99855.03;5073376;28;20021;-80
2023/01/30 01:26:06;;;;;;;27.33;20.23;;;;;;;4.98;71.13;99928.56;5074473;28;20095;-80
2023/01/30 01:28:31;;;;;;;24.40;18.63;;;;;;;4.16;71.07;99792.66;5074827;28;20025;-80
2023/01/30 01:30:57;;;;;;;21.20;16.90;;;;;;;4.27;70.83;99816.09;5074771;28;20503;-80
2023/01/30 01:33:28;;;;;;;24.57;17.60;;;;;;;4.31;70.90;99842.81;5074441;28;20048;-80
2023/01/30 01:35:56;;;;;;;23.63;18.08;;;;;;;4.58;70.94;99866.63;5074760;28;20440;-80
2023/01/30 01:38:22;;;;;;;23.00;17.40;;;;;;;4.93;70.87;99921.13;5074576;28;20041;-80
2023/01/30 01:41:04;;;;;;;21.83;17.53;;;;;;;4.51;71.00;99869.88;5073415;28;20035;-80
2023/01/30 01:43:34;;;;;;;22.90;17.93;;;;;;;4.93;71.08;99913.25;5074914;28;20134;-80
2023/01/30 01:46:08;;;;;;;22.70;17.67;;;;;;;4.51;70.71;99849.78;5074520;28;20398;-80
2023/01/30 01:48:39;;;;;;;22.97;18.00;;;;;;;4.90;70.74;99921.38;5073818;28;20031;-80
2023/01/30 01:51:09;;;;;;;23.00;18.00;;;;;;;4.69;70.86;99874.34;5073543;28;20020;-80
2023/01/30 01:53:43;;;;;;;23.67;17.60;;;;;;;4.50;70.79;99852.53;5073460;28;20098;-80
2023/01/30 01:56:12;;;;;;;22.73;17.97;;;;;;;4.56;70.73;99868.53;5073562;28;20103;-80
2023/01/30 01:58:54;;;;;;;20.77;16.60;;;;;;;4.19;71.01;99799.41;5073431;28;20025;-80
2023/01/30 02:01:19;;;;;;;18.88;15.40;;;;;;;4.55;71.07;99845.97;5073801;28;20029;-80
2023/01/30 02:03:51;;;;;;;23.43;17.83;;;;;;;4.49;71.01;99836.03;5074067;28;20025;-80
2023/01/30 02:06:17;;;;;;;24.35;17.90;;;;;;;4.55;70.88;99837.28;5074278;28;20055;-80
2023/01/30 02:08:49;;;;;;;22.07;16.93;;;;;;;4.57;70.71;99840.59;5074872;28;20429;-80
2023/01/30 02:11:46;;;;;;;25.13;18.23;;;;;;;4.60;70.71;99853.41;5076962;28;20050;-80
2023/01/30 02:14:13;;;;;;;23.10;19.37;;;;;;;4.12;70.63;99770.38;5076531;28;20384;-80
2023/01/30 02:16:40;;;;;;;21.83;17.40;;;;;;;4.73;70.97;99880.97;5076146;28;20031;-80
2023/01/30 02:19:29;;;;;;;21.83;17.00;;;;;;;4.37;70.85;99795.22;5074709;28;20028;-81
2023/01/30 02:22:20;;;;;;;24.60;18.53;;;;;;;4.78;71.01;99870.94;5074695;28;20494;-80
2023/01/30 02:25:07;;;;;;;25.20;18.33;;;;;;;4.60;70.99;99840.31;5074443;28;20033;-80
2023/01/30 02:27:35;;;;;;;25.43;18.57;;;;;;;4.76;71.01;99872.88;5074673;28;20016;-80
2023/01/30 02:30:14;;;;;;;23.13;18.10;;;;;;;4.81;70.87;99872.47;5074440;28;20110;-80
2023/01/30 02:32:45;;;;;;;22.63;17.33;;;;;;;4.85;70.75;99865.19;5076496;28;20099;-80
2023/01/30 02:35:41;;;;;;;17.00;13.63;;;;;;;4.79;70.70;99863.94;5079330;28;20028;-80
2023/01/30 02:38:20;;;;;;;23.87;17.30;;;;;;;4.40;70.67;99813.25;5077842;28;20290;-80
2023/01/30 02:41:10;;;;;;;23.57;17.13;;;;;;;4.81;70.77;99867.25;5078961;28;20029;-80
2023/01/30 02:43:58;;;;;;;23.70;18.47;;;;;;;4.22;70.50;99773.03;5079321;28;20025;-80
2023/01/30 02:46:46;;;;;;;23.67;16.83;;;;;;;4.81;70.76;99859.38;5080620;28;20514;-80
2023/01/30 02:49:40;;;;;;;22.40;17.10;;;;;;;4.50;70.69;99813.31;5082463;28;20040;-80
2023/01/30 02:52:08;;;;;;;24.27;17.43;;;;;;;4.69;70.71;99850.00;5088221;28;20035;-80
2023/01/30 02:54:33;;;;;;;24.07;17.27;;;;;;;4.59;70.56;99851.75;5080232;28;20181;-80
2023/01/30 02:56:59;;;;;;;23.40;18.10;;;;;;;4.76;70.58;99869.44;5077991;28;20066;-80
2023/01/30 02:59:39;;;;;;;25.90;18.77;;;;;;;4.75;70.74;99860.75;5078062;28;20030;-80
2023/01/30 03:02:07;;;;;;;25.50;18.50;;;;;;;4.77;70.58;99861.44;5078107;28;20032;-80
2023/01/30 03:04:35;;;;;;;23.97;17.67;;;;;;;4.78;70.52;99862.28;5076344;28;20036;-80
2023/01/30 03:07:21;;;;;;;26.33;18.47;;;;;;;4.54;70.41;99830.41;5077798;28;20432;-80
2023/01/30 03:10:25;;;;;;;23.80;17.83;;;;;;;4.75;70.54;99862.53;5078432;28;20158;-80
2023/01/30 03:13:01;;;;;;;25.30;18.30;;;;;;;4.67;70.36;99839.66;5079906;28;20039;-80
2023/01/30 03:15:39;;;;;;;22.97;16.83;;;;;;;4.39;70.32;99824.69;5077448;28;20488;-80
2023/01/30 03:18:06;;;;;;;21.80;16.27;;;;;;;4.67;70.60;99842.28;5072827;28;20027;-80
2023/01/30 03:20:39;;;;;;;20.67;16.27;;;;;;;4.76;70.71;99866.81;5071239;28;20140;-80
2023/01/30 03:23:05;;;;;;;27.83;20.33;;;;;;;4.25;70.76;99776.19;5073515;28;20085;-80
2023/01/30 03:25:31;;;;;;;26.53;19.80;;;;;;;4.25;70.66;99793.66;5073245;28;20040;-80
2023/01/30 03:27:57;;;;;;;22.50;17.10;;;;;;;4.70;70.90;99849.84;5073576;28;20097;-80
2023/01/30 03:30:24;;;;;;;21.83;16.50;;;;;;;4.14;70.76;99766.66;5073525;28;20025;-80
2023/01/30 03:32:50;;;;;;;23.93;17.43;;;;;;;4.59;70.79;99834.28;5073594;28;20501;-80
2023/01/30 03:35:16;;;;;;;27.87;18.97;;;;;;;4.27;70.98;99787.34;5073474;28;20031;-80
2023/01/30 03:37:43;;;;;;;25.27;19.10;;;;;;;3.21;70.74;99595.41;5071898;28;20130;-80
2023/01/30 03:40:10;;;;;;;27.23;19.63;;;;;;;4.64;70.53;99823.41;5073327;28;20029;-81
2023/01/30 03:42:35;;;;;;;27.37;19.13;;;;;;;3.83;70.81;99728.44;5071884;28;20028;-80
2023/01/30 03:45:01;;;;;;;25.13;18.77;;;;;;;4.58;70.89;99810.88;5073934;28;20028;-80
2023/01/30 03:47:26;;;;;;;25.07;17.93;;;;;;;4.23;70.48;99765.06;5074073;28;20031;-80
2023/01/30 03:49:52;;;;;;;24.23;19.37;;;;;;;4.34;70.96;99791.09;5074283;28;20030;-80
2023/01/30 03:52:17;;;;;;;25.30;19.93;;;;;;;4.07;70.75;99733.34;5073748;28;20099;-80
2023/01/30 03:54:42;;;;;;;25.07;19.37;;;;;;;4.64;70.99;99815.56;5073992;28;20054;-80
2023/01/30 03:57:08;;;;;;;25.23;20.13;;;;;;;4.74;70.65;99839.97;5073831;28;20032;-80
2023/01/30 03:59:33;;;;;;;26.03;18.83;;;;;;;4.73;70.75;99843.53;5072236;28;20028;-80
2023/01/30 04:01:58;;;;;;;25.10;18.80;;;;;;;4.55;70.87;99808.53;5073438;28;20024;-80
2023/01/30 04:04:24;;;;;;;29.63;22.33;;;;;;;3.98;70.84;99721.09;5074678;28;20052;-79
2023/01/30 04:06:49;;;;;;;28.97;22.30;;;;;;;4.26;70.68;99777.03;5073683;28;20035;-80
2023/01/30 04:09:15;;;;;;;26.30;19.37;;;;;;;4.53;70.68;99807.81;5075061;28;20029;-80
2023/01/30 04:11:40;;;;;;;23.20;17.70;;;;;;;4.02;70.57;99718.09;5074542;28;20477;-80
2023/01/30 04:14:05;;;;;;;26.97;19.40;;;;;;;4.73;70.74;99833.06;5074868;28;20029;-80
2023/01/30 04:16:31;;;;;;;27.73;18.97;;;;;;;4.28;70.84;99756.81;5075404;28;20032;-80
2023/01/30 04:18:56;;;;;;;23.83;18.90;;;;;;;4.21;70.54;99747.84;5072775;28;20032;-80
2023/01/30 04:21:22;;;;;;;22.57;16.27;;;;;;;4.27;70.58;99769.06;5072518;28;20071;-80
2023/01/30 04:23:47;;;;;;;25.37;19.90;;;;;;;3.92;70.88;99727.66;5072545;28;20028;-80
2023/01/30 04:26:12;;;;;;;25.63;19.53;;;;;;;4.01;70.39;99721.66;5072544;28;20584;-80
2023/01/30 04:28:38;;;;;;;27.30;19.97;;;;;;;4.60;70.45;99808.94;5072364;28;20393;-80
2023/01/30 04:31:04;;;;;;;25.00;19.67;;;;;;;4.78;70.26;99846.56;5072301;28;20548;-80
2023/01/30 04:33:34;;;;;;;27.60;21.13;;;;;;;3.97;70.58;99729.88;5070873;28;20024;-80
2023/01/30 04:36:00;;;;;;;25.27;18.43;;;;;;;4.73;70.54;99848.78;5070699;28;20090;-80
2023/01/30 04:38:27;;;;;;;25.37;19.50;;;;;;;4.62;70.47;99827.94;5071888;28;20020;-80
2023/01/30 04:40:56;;;;;;;30.80;22.63;;;;;;;4.72;70.68;99842.72;5071984;28;20028;-79
2023/01/30 04:43:23;;;;;;;36.20;24.07;;;;;;;4.44;70.20;99801.56;5072015;28;20050;-80
2023/01/30 04:45:49;;;;;;;36.27;24.37;;;;;;;4.70;70.02;99844.63;5070569;28;20032;-80
2023/01/30 04:48:16;;;;;;;33.47;23.77;;;;;;;4.13;69.87;99765.00;5071885;28;20028;-80
2023/01/30 04:50:43;;;;;;;37.77;24.80;;;;;;;4.01;69.74;99736.50;5071845;28;20017;-80
2023/01/30 04:53:10;;;;;;;32.03;23.23;;;;;;;4.00;69.55;99747.91;5070612;28;20020;-80
2023/01/30 04:55:35;;;;;;;38.90;25.93;;;;;;;4.62;69.26;99847.09;5070611;28;20139;-80
2023/01/30 04:58:01;;;;;;;34.33;23.63;;;;;;;4.62;69.27;99867.19;5071911;28;20116;-80
2023/01/30 05:00:27;;;;;;;36.90;25.07;;;;;;;4.64;69.36;99845.16;5071722;28;20031;-80
2023/01/30 05:02:54;;;;;;;34.80;24.23;;;;;;;4.66;69.33;99845.03;5071821;28;20024;-79
2023/01/30 05:05:23;;;;;;;36.43;24.57;;;;;;;4.20;69.36;99775.78;5070459;28;20024;-80
2023/01/30 05:07:49;;;;;;;35.67;24.30;;;;;;;4.40;68.98;99811.47;5071676;28;20085;-80
2023/01/30 05:10:15;;;;;;;39.60;25.63;;;;;;;4.64;68.99;99841.72;5071669;28;20024;-79
2023/01/30 05:12:40;;;;;;;39.10;25.57;;;;;;;4.12;68.84;99760.75;5070264;28;20504;-79
2023/01/30 05:15:06;;;;;;;37.97;25.33;;;;;;;4.13;69.14;99758.97;5071460;28;20017;-79
2023/01/30 05:17:33;;;;;;;37.53;24.77;;;;;;;4.47;69.12;99817.03;5072683;28;20544;-79
2023/01/30 05:19:58;;;;;;;37.93;25.67;;;;;;;4.06;68.98;99752.59;5073417;28;20049;-80
2023/01/30 05:22:23;;;;;;;38.70;26.63;;;;;;;4.58;68.97;99850.09;5074940;28;20078;-79
2023/01/30 05:24:49;;;;;;;35.47;24.63;;;;;;;4.57;68.96;99838.81;5075272;28;20033;-79
2023/01/30 05:27:14;;;;;;;33.77;23.57;;;;;;;3.83;69.22;99720.63;5074906;28;20020;-79
2023/01/30 05:29:40;;;;;;;37.13;24.30;;;;;;;3.89;69.14;99724.50;5075051;28;20063;-79
2023/01/30 05:32:06;;;;;;;37.10;24.30;;;;;;;4.60;69.36;99842.94;5076200;28;20029;-80
2023/01/30 05:34:31;;;;;;;38.30;25.63;;;;;;;4.33;69.06;99789.44;5077323;28;20028;-79
2023/01/30 05:36:56;;;;;;;39.73;26.13;;;;;;;4.67;69.08;99854.53;5077957;28;20146;-79
2023/01/30 05:39:22;;;;;;;38.70;25.40;;;;;;;4.39;68.86;99815.03;5082351;28;20035;-79
2023/01/30 05:41:47;;;;;;;38.47;25.07;;;;;;;3.93;69.06;99728.50;5085878;28;20413;-80
2023/01/30 05:44:13;;;;;;;34.07;24.50;;;;;;;4.03;68.75;99758.94;5083141;28;20032;-80
2023/01/30 05:46:38;;;;;;;33.80;23.97;;;;;;;4.08;69.21;99758.53;5079877;28;20469;-79
2023/01/30 05:49:03;;;;;;;37.23;25.23;;;;;;;4.65;69.03;99835.53;5080715;28;20020;-79
2023/01/30 05:51:29;;;;;;;36.37;22.70;;;;;;;4.63;69.20;99845.28;5095998;28;20036;-79
2023/01/30 05:53:55;;;;;;;34.80;23.67;;;;;;;4.41;69.44;99805.28;5100952;28;20031;-80
2023/01/30 05:56:21;;;;;;;40.60;24.47;;;;;;;4.35;68.89;99818.88;5102106;28;20031;-79
2023/01/30 05:58:55;;;;;;;34.47;23.70;;;;;;;4.02;68.83;99762.50;5103925;28;20024;-79
2023/01/30 06:01:21;;;;;;;32.90;21.63;;;;;;;4.59;69.19;99849.97;5103834;28;20501;-79
2023/01/30 06:03:48;;;;;;;34.07;22.20;;;;;;;4.52;69.09;99842.78;5108136;28;20088;-79
2023/01/30 06:06:14;;;;;;;32.53;21.17;;;;;;;4.61;69.11;99849.84;5099767;28;20523;-79
2023/01/30 06:08:39;;;;;;;31.03;21.90;;;;;;;4.07;68.80;99756.88;5099788;28;20024;-80
2023/01/30 06:11:07;;;;;;;30.80;21.53;;;;;;;4.23;68.91;99806.03;5099487;28;20027;-79
2023/01/30 06:13:34;;;;;;;32.43;21.13;;;;;;;4.26;69.14;99801.38;5099825;28;20024;-79
2023/01/30 06:15:59;;;;;;;30.47;20.93;;;;;;;4.01;68.87;99768.69;5100799;28;20032;-79
2023/01/30 06:18:25;;;;;;;31.90;19.93;;;;;;;3.97;69.07;99787.34;5100898;28;20119;-79
2023/01/30 06:20:51;;;;;;;27.53;19.90;;;;;;;4.51;69.08;99849.78;5099708;28;20043;-80
2023/01/30 06:23:17;;;;;;;27.17;19.57;;;;;;;4.02;69.04;99780.78;5098451;28;20510;-79
2023/01/30 06:25:47;;;;;;;30.10;20.73;;;;;;;4.37;69.25;99822.19;5097991;28;20031;-79
2023/01/30 06:28:13;;;;;;;31.50;22.60;;;;;;;4.54;68.93;99870.44;5100120;28;20031;-79
2023/01/30 06:30:39;;;;;;;32.17;22.20;;;;;;;4.14;69.40;99789.34;5100506;28;20024;-79
2023/01/30 06:33:05;;;;;;;32.90;22.70;;;;;;;4.34;69.22;99817.22;5099037;28;20034;-79
2023/01/30 06:35:32;;;;;;;33.53;23.27;;;;;;;4.59;69.60;99857.81;5098936;28;20436;-79
2023/01/30 06:37:57;;;;;;;35.53;23.13;;;;;;;4.07;69.21;99781.22;5098886;28;20039;-80
2023/01/30 06:40:23;;;;;;;37.83;25.80;;;;;;;4.07;69.39;99776.00;5099295;28;20031;-79
2023/01/30 06:42:49;;;;;;;35.63;24.13;;;;;;;4.61;69.54;99860.28;5098999;28;20028;-80
2023/01/30 06:45:16;;;;;;;30.27;22.50;;;;;;;4.51;69.25;99843.75;5100485;28;20095;-79
2023/01/30 06:47:47;;;;;;;37.50;26.07;;;;;;;4.18;69.15;99795.97;5099434;28;20024;-79
2023/01/30 06:50:14;;;;;;;30.83;22.73;;;;;;;4.10;69.60;99787.97;5096081;28;20115;-80
2023/01/30 06:52:41;;;;;;;35.37;24.30;;;;;;;4.63;69.25;99872.28;5096371;28;20028;-79
2023/01/30 06:55:07;;;;;;;37.57;25.50;;;;;;;4.62;68.95;99880.25;5092987;28;20417;-80
2023/01/30 06:57:32;;;;;;;32.63;23.40;;;;;;;3.96;68.86;99767.41;5091395;28;20080;-79
2023/01/30 06:59:58;;;;;;;36.90;25.13;;;;;;;4.22;68.82;99812.22;5087144;28;20447;-80
2023/01/30 07:02:23;;;;;;;39.77;25.13;;;;;;;4.62;68.75;99860.16;5090456;28;20152;-80
2023/01/30 07:04:49;;;;;;;39.17;24.63;;;;;;;4.00;68.70;99781.88;5095639;28;20035;-79
2023/01/30 07:07:14;;;;;;;40.13;27.80;;;;;;;4.62;68.68;99846.25;5095929;28;20099;-79
2023/01/30 07:09:39;;;;;;;48.13;32.87;;;;;;;4.56;68.70;99841.56;5096197;28;20043;-80
2023/01/30 07:12:05;;;;;;;36.93;26.20;;;;;;;4.56;68.98;99820.63;5095924;28;20028;-79
2023/01/30 07:14:30;;;;;;;35.37;24.90;;;;;;;4.24;68.60;99773.72;5094545;28;20035;-79
2023/01/30 07:16:56;;;;;;;35.10;25.70;;;;;;;4.30;68.59;99786.25;5095370;28;20039;-79
2023/01/30 07:19:21;;;;;;;38.07;25.47;;;;;;;4.82;68.43;99863.66;5095395;28;20032;-79
2023/01/30 07:21:46;;;;;;;37.70;24.50;;;;;;;4.34;68.14;99791.09;5074160;28;20127;-80
2023/01/30 07:24:12;;;;;;;33.60;23.47;;;;;;;4.22;68.38;99773.03;5092311;28;20039;-79
2023/01/30 07:26:37;;;;;;;33.10;22.00;;;;;;;4.17;67.96;99757.75;5109927;28;20035;-79
2023/01/30 07:29:03;;;;;;;30.40;21.97;;;;;;;4.22;68.05;99759.97;5116503;28;20481;-79
2023/01/30 07:31:28;;;;;;;30.73;21.30;;;;;;;4.78;67.88;99855.25;5097391;28;20031;-80
2023/01/30 07:33:53;;;;;;;29.03;20.00;;;;;;;4.27;67.78;99778.69;5096519;28;20028;-79
2023/01/30 07:36:19;;;;;;;27.00;19.80;;;;;;;4.76;67.74;99858.97;5092775;28;20078;-79
2023/01/30 07:38:47;;;;;;;31.20;19.60;;;;;;;4.79;67.58;99851.69;5095777;28;20027;-79
2023/01/30 07:41:12;;;;;;;31.17;20.77;;;;;;;4.71;67.46;99843.66;5095063;28;20092;-79
2023/01/30 07:43:38;;;;;;;32.73;20.77;;;;;;;4.23;67.50;99767.66;5096860;28;20502;-80
2023/01/30 07:46:03;;;;;;;31.70;21.60;;;;;;;4.66;67.55;99860.72;5096402;28;20113;-80
2023/01/30 07:48:29;;;;;;;26.87;18.57;;;;;;;4.10;67.34;99778.34;5098026;28;20023;-79
2023/01/30 07:50:57;;;;;;;29.20;19.33;;;;;;;4.65;67.33;99848.59;5099066;28;20401;-79
2023/01/30 07:53:23;;;;;;;27.43;20.37;;;;;;;4.35;67.41;99808.44;5094995;28;20028;-79
2023/01/30 07:55:48;;;;;;;27.77;20.33;;;;;;;4.53;66.63;99826.13;5097618;28;20028;-80
2023/01/30 07:58:15;;;;;;;30.20;20.33;;;;;;;4.77;67.06;99844.94;5097814;28;20028;-80
2023/01/30 08:00:40;;;;;;;30.27;20.57;;;;;;;4.45;66.59;99792.78;5096683;28;20032;-79
2023/01/30 08:03:11;;;;;;;30.00;20.20;;;;;;;4.38;66.56;99749.81;5093636;28;20470;-79
2023/01/30 08:05:36;;;;;;;28.63;19.67;;;;;;;4.87;66.41;99826.63;5092547;28;20555;-79
2023/01/30 08:08:01;;;;;;;26.77;17.97;;;;;;;4.19;65.80;99719.25;5091803;28;20028;-79
2023/01/30 08:10:27;;;;;;;25.40;17.73;;;;;;;4.43;65.43;99742.41;5092532;28;20051;-80
2023/01/30 08:12:52;;;;;;;26.00;17.97;;;;;;;5.05;65.00;99848.56;5091655;28;20028;-79
2023/01/30 08:15:18;;;;;;;29.27;19.33;;;;;;;4.26;64.65;99709.06;5092393;28;20051;-79
2023/01/30 08:17:43;;;;;;;29.80;18.27;;;;;;;5.11;64.68;99848.84;5092895;28;20027;-79
2023/01/30 08:20:09;;;;;;;29.57;19.27;;;;;;;4.72;64.36;99782.56;5094614;28;20047;-79
2023/01/30 08:22:34;;;;;;;23.90;17.57;;;;;;;4.64;64.42;99748.41;5094638;28;20055;-80
2023/01/30 08:25:00;;;;;;;27.40;18.17;;;;;;;5.05;64.17;99811.94;5111773;28;20063;-79
2023/01/30 08:27:25;;;;;;;28.33;18.07;;;;;;;5.16;63.81;99817.03;5098715;28;20137;-79
2023/01/30 08:29:51;;;;;;;34.73;24.83;;;;;;;5.35;63.59;99850.28;5113902;28;20452;-79
2023/01/30 08:32:16;;;;;;;32.40;21.38;;;;;;;5.16;63.18;99814.41;5112861;28;20012;-80
2023/01/30 08:34:41;;;;;;;27.13;19.43;;;;;;;5.32;63.27;99827.00;5096346;28;20046;-79
2023/01/30 08:37:07;;;;;;;29.27;20.43;;;;;;;4.84;63.00;99749.25;5095310;28;20111;-79
2023/01/30 08:39:32;;;;;;;32.70;19.80;;;;;;;4.46;62.95;99674.19;5090175;28;20419;-79
2023/01/30 08:41:58;;;;;;;29.33;20.10;;;;;;;4.86;62.81;99733.41;5100406;27;20024;-79
2023/01/30 08:44:23;;;;;;;26.63;17.70;;;;;;;5.07;62.56;99762.91;5092715;28;20082;-79
2023/01/30 08:46:48;;;;;;;26.67;18.90;;;;;;;5.43;62.38;99822.44;5093048;28;20026;-79
2023/01/30 08:49:14;;;;;;;30.27;19.00;;;;;;;5.49;62.60;99830.72;5093779;28;20457;-80
2023/01/30 08:51:39;;;;;;;26.97;18.37;;;;;;;4.84;62.23;99733.56;5099699;28;20580;-79
2023/01/30 08:54:08;;;;;;;22.83;16.83;;;;;;;4.82;62.05;99725.03;5075672;28;20031;-79
2023/01/30 08:56:33;;;;;;;25.17;17.40;;;;;;;4.70;61.68;99720.88;5102565;28;20027;-79
2023/01/30 08:58:59;;;;;;;21.77;15.53;;;;;;;5.33;61.55;99798.06;5115517;28;20028;-79
2023/01/30 09:01:24;;;;;;;23.40;16.40;;;;;;;5.15;61.18;99791.00;5114529;28;20473;-80
2023/01/30 09:03:50;;;;;;;22.50;15.32;;;;;;;5.08;60.95;99788.94;5114861;28;20556;-78
2023/01/30 09:06:15;;;;;;;25.98;16.70;;;;;;;5.31;61.05;99817.47;5117685;28;20031;-78
2023/01/30 09:08:41;;;;;;;24.60;18.87;;;;;;;4.92;61.30;99775.56;5114891;28;20030;-79
2023/01/30 09:11:06;;;;;;;26.17;17.97;;;;;;;3.92;61.36;99591.84;5108164;28;20031;-79
2023/01/30 09:13:33;;;;;;;22.40;15.50;;;;;;;5.15;60.23;99768.25;5110636;28;20049;-79
2023/01/30 09:15:59;;;;;;;22.77;16.33;;;;;;;5.30;60.47;99789.66;5112944;28;20030;-79
2023/01/30 09:18:25;;;;;;;19.77;14.20;;;;;;;5.39;60.19;99809.75;5112476;28;20019;-79
2023/01/30 09:20:50;;;;;;;22.30;15.07;;;;;;;5.10;59.96;99755.59;5113438;28;20126;-79
2023/01/30 09:23:16;;;;;;;26.10;16.25;;;;;;;5.40;60.05;99799.16;5111089;28;20062;-79
2023/01/30 09:25:44;;;;;;;25.85;15.10;;;;;;;5.47;59.96;99795.97;5113590;28;20084;-79
2023/01/30 09:28:10;;;;;;;21.27;15.93;;;;;;;5.29;60.27;99761.81;5113294;28;20028;-80
2023/01/30 09:30:35;;;;;;;23.88;16.48;;;;;;;5.09;59.99;99733.00;5113820;28;20527;-79
2023/01/30 09:33:01;;;;;;;24.50;16.23;;;;;;;5.57;60.32;99787.13;5110050;28;20070;-79
2023/01/30 09:35:26;;;;;;;23.50;15.60;;;;;;;5.36;60.11;99757.69;5103630;28;20057;-79
2023/01/30 09:37:52;;;;;;;25.52;18.60;;;;;;;5.60;60.06;99768.53;5095177;28;20389;-79
2023/01/30 09:40:30;;;;;;;28.93;18.80;;;;;;;5.34;59.30;99717.72;5113196;28;20024;-79
2023/01/30 09:43:20;;;;;;;24.03;16.67;;;;;;;5.52;58.10;99755.31;5108972;28;20415;-80
2023/01/30 09:45:54;;;;;;;25.23;16.43;;;;;;;5.66;59.55;99761.91;5112458;28;20028;-79
2023/01/30 09:48:32;;;;;;;23.70;16.37;;;;;;;5.71;58.78;99746.59;5112204;28;20084;-79
2023/01/30 09:51:20;;;;;;;22.53;15.03;;;;;;;5.72;59.25;99756.09;5112419;28;20047;-79
2023/01/30 09:53:58;;;;;;;26.03;17.33;;;;;;;5.32;58.69;99690.84;5107782;28;20056;-79
2023/01/30 09:56:23;;;;;;;23.77;15.77;;;;;;;5.20;59.23;99673.63;5110771;28;20034;-79
2023/01/30 09:59:01;;;;;;;20.67;14.73;;;;;;;5.45;57.73;99704.47;5111890;28;20027;-80
2023/01/30 10:01:35;;;;;;;21.90;15.37;;;;;;;5.62;58.80;99723.84;5109728;28;20050;-79
2023/01/30 10:04:14;;;;;;;21.73;15.95;;;;;;;5.69;58.40;99727.56;5112251;28;20023;-79
2023/01/30 10:06:53;;;;;;;22.80;14.87;;;;;;;5.57;58.53;99716.44;5111788;28;20020;-79
2023/01/30 10:09:56;;;;;;;23.53;15.30;;;;;;;5.73;58.42;99718.44;5112153;28;20508;-79
2023/01/30 10:12:46;;;;;;;19.45;14.32;;;;;;;5.77;58.00;99711.13;5108770;28;20063;-79
2023/01/30 10:15:37;;;;;;;20.67;15.27;;;;;;;5.67;57.81;99691.03;5112080;28;20027;-79
2023/01/30 10:18:34;;;;;;;21.50;13.73;;;;;;;5.78;56.43;99697.06;5108354;28;20109;-78
2023/01/30 10:21:33;;;;;;;21.67;14.88;;;;;;;5.82;57.11;99714.97;5109668;28;20474;-79
2023/01/30 10:24:23;;;;;;;20.92;14.30;;;;;;;5.43;57.86;99652.25;5111714;28;20020;-79
2023/01/30 10:26:48;;;;;;;21.10;14.97;;;;;;;5.19;58.38;99612.59;5108863;28;20027;-79
2023/01/30 10:29:23;;;;;;;19.45;13.35;;;;;;;5.71;57.27;99687.16;5111724;28;20031;-79
2023/01/30 10:32:02;;;;;;;21.57;13.90;;;;;;;4.96;57.57;99570.25;5105889;28;20023;-79
2023/01/30 10:34:33;;;;;;;17.75;12.02;;;;;;;5.62;57.80;99685.41;5112978;28;20514;-79
2023/01/30 10:37:07;;;;;;;19.80;12.45;;;;;;;5.54;57.64;99680.03;5092598;28;20477;-79
2023/01/30 10:39:49;;;;;;;21.00;13.48;;;;;;;4.93;58.33;99569.69;5095940;28;20034;-79
2023/01/30 10:42:23;;;;;;;21.27;13.70;;;;;;;4.88;58.24;99559.66;5093334;28;20401;-79
2023/01/30 10:44:48;;;;;;;18.00;13.53;;;;;;;5.05;57.95;99592.94;5093925;28;20099;-78
2023/01/30 10:47:20;;;;;;;22.13;14.20;;;;;;;5.61;58.09;99651.50;5110392;28;20113;-78
2023/01/30 10:49:50;;;;;;;20.83;13.98;;;;;;;5.59;57.94;99654.25;5115171;28;20065;-79
2023/01/30 10:52:26;;;;;;;19.03;14.13;;;;;;;5.68;58.07;99642.09;5111750;28;20381;-80
2023/01/30 10:55:03;;;;;;;20.20;13.73;;;;;;;5.76;57.22;99636.94;5112276;28;20496;-78
2023/01/30 10:58:03;;;;;;;23.87;15.67;;;;;;;5.84;57.22;99625.75;5115206;28;20522;-80
2023/01/30 11:00:42;;;;;;;21.47;14.00;;;;;;;5.84;56.46;99615.25;5113804;28;20053;-80
2023/01/30 11:03:37;;;;;;;19.63;13.27;;;;;;;5.77;56.74;99583.59;5107278;28;20030;-80
2023/01/30 11:06:10;;;;;;;16.43;12.37;;;;;;;5.65;56.69;99588.19;5113656;28;20114;-80
2023/01/30 11:08:35;;;;;;;20.03;13.23;;;;;;;5.88;57.18;99603.53;5114479;28;20430;-80
2023/01/30 11:11:26;;;;;;;17.70;12.48;;;;;;;5.24;55.93;99478.72;5113710;28;20102;-80
2023/01/30 11:14:01;;;;;;;21.73;15.80;;;;;;;5.95;56.33;99586.31;5112170;28;20036;-80
2023/01/30 11:16:26;;;;;;;20.00;13.85;;;;;;;5.97;57.03;99582.56;5114368;28;20098;-80
2023/01/30 11:18:52;;;;;;;19.33;13.83;;;;;;;5.57;56.41;99508.72;5110688;27;20079;-80
2023/01/30 11:21:30;;;;;;;20.73;12.90;;;;;;;5.73;56.18;99524.59;5092320;28;20040;-80
2023/01/30 11:23:55;;;;;;;21.13;13.82;;;;;;;5.88;56.72;99559.81;5103182;28;20020;-80
2023/01/30 11:26:29;;;;;;;21.70;14.70;;;;;;;5.98;56.34;99563.25;5114219;28;20026;-79
2023/01/30 11:28:55;;;;;;;22.10;13.85;;;;;;;5.25;56.40;99441.91;5114188;28;20025;-80
2023/01/30 11:31:29;;;;;;;20.15;13.82;;;;;;;6.02;55.62;99556.72;5107905;28;20466;-80
2023/01/30 11:34:04;;;;;;;22.08;14.32;;;;;;;5.45;56.48;99489.75;5112882;28;20023;-80
2023/01/30 11:36:32;;;;;;;17.77;11.87;;;;;;;5.59;56.49;99496.28;5114636;27;20019;-80
2023/01/30 11:39:11;;;;;;;19.05;12.90;;;;;;;5.61;55.58;99505.66;5119614;28;20041;-80